CheckWX is a tool to help pilots better visualize weather data.  It is not intended as a substitute for an official pre-flight weather briefing.

05:21:59 UTC

EBDT METAR
Schaffen Airport
Diest, Belgium
Current

27 mins ago

EBDT 200455Z 18004KT 9999 FEW040 BKN140 04/02 Q1021 BLACKBLU
Observed
Feb-20 @ 04:55 UTC
Wind
  • 180° at 4 KTS
Visibility
10,000+ meters
Flight Rules
VFR
Cloud Levels
  • Few at 4,000' AGL
  • Broken at 14,000' AGL
Temperature
C / 39°F
Dewpoint
C / 36°F
Humidity
87%
Altimeter
30.15" Hg
Pressure
1020.92 hPa
Previous

1 hour ago

EBDT 200355Z AUTO 21004KT 9999 BKN039/// OVC140/// 05/02 Q1021 BLU
Observed
Feb-20 @ 03:55 UTC
Wind
  • 210° at 4 KTS
Visibility
10,000+ meters
Flight Rules
VFR
Cloud Levels
  • Broken at 3,900' AGL
  • Overcast at 14,000' AGL
Temperature
C / 41°F
Dewpoint
C / 36°F
Humidity
81%
Altimeter
30.15" Hg
Pressure
1020.92 hPa
Previous

2 hours ago

EBDT 200325Z AUTO 20005KT 9999 BKN039/// 04/02 Q1021 BLU
Observed
Feb-20 @ 03:25 UTC
Wind
  • 200° at 5 KTS
Visibility
10,000+ meters
Flight Rules
VFR
Cloud Levels
  • Broken at 3,900' AGL
Temperature
C / 39°F
Dewpoint
C / 36°F
Humidity
87%
Altimeter
30.15" Hg
Pressure
1020.92 hPa